Time;durP1;ratioP1;P1;durP2;ratioP2;P2;SDS_P1;SDS_P2;PMS_P1;PMS_P2;Temp;Humidity;BMP_temperature;BMP_pressure;BME280_temperature;BME280_humidity;BME280_pressure;Samples;Min_cycle;Max_cycle;Signal;HPM_P1;HPM_P2
2023/04/11 00:00:45;;;;;;;5.68;2.05;;;;;;;;;;5044921;28;20037;-71
2023/04/11 00:03:12;;;;;;;8.63;1.63;;;;;;;;;;5045309;28;20044;-70
2023/04/11 00:05:38;;;;;;;5.00;1.33;;;;;;;;;;5044894;28;20071;-70
2023/04/11 00:08:04;;;;;;;5.35;1.63;;;;;;;;;;5045211;28;20495;-70
2023/04/11 00:10:30;;;;;;;4.03;0.98;;;;;;;;;;5044914;28;20136;-70
2023/04/11 00:12:56;;;;;;;3.28;1.50;;;;;;;;;;5045183;28;20128;-70
2023/04/11 00:15:23;;;;;;;4.97;1.48;;;;;;;;;;5045531;28;20060;-71
2023/04/11 00:17:49;;;;;;;4.72;1.77;;;;;;;;;;5042556;28;20049;-70
2023/04/11 00:20:15;;;;;;;6.90;2.33;;;;;;;;;;5045260;28;20049;-70
2023/04/11 00:22:42;;;;;;;4.63;1.48;;;;;;;;;;5044812;28;20565;-70
2023/04/11 00:25:08;;;;;;;3.53;1.55;;;;;;;;;;5044169;28;20053;-70
2023/04/11 00:27:34;;;;;;;5.03;1.33;;;;;;;;;;5044332;28;20402;-71
2023/04/11 00:30:00;;;;;;;4.65;1.75;;;;;;;;;;5043166;28;20793;-70
2023/04/11 00:32:26;;;;;;;5.15;1.77;;;;;;;;;;5043521;28;20461;-70
2023/04/11 00:34:52;;;;;;;3.97;1.45;;;;;;;;;;5042383;28;21036;-70
2023/04/11 00:37:21;;;;;;;5.60;1.67;;;;;;;;;;5044486;28;20581;-70
2023/04/11 00:39:51;;;;;;;5.63;1.85;;;;;;;;;;5040715;28;20419;-71
2023/04/11 00:42:18;;;;;;;9.55;2.10;;;;;;;;;;5043496;28;20041;-70
2023/04/11 00:44:44;;;;;;;6.32;1.85;;;;;;;;;;5043750;28;20048;-72
2023/04/11 00:47:10;;;;;;;5.35;1.80;;;;;;;;;;5042972;28;20056;-71
2023/04/11 00:49:37;;;;;;;7.32;1.90;;;;;;;;;;5044692;28;20067;-71
2023/04/11 00:52:03;;;;;;;10.07;2.38;;;;;;;;;;5043244;28;20061;-71
2023/04/11 00:54:30;;;;;;;7.10;1.67;;;;;;;;;;5042863;28;20076;-72
2023/04/11 00:57:00;;;;;;;8.07;2.28;;;;;;;;;;5042411;28;20045;-72
2023/04/11 00:59:27;;;;;;;6.30;1.88;;;;;;;;;;5042698;28;20083;-72
2023/04/11 01:01:53;;;;;;;7.85;2.65;;;;;;;;;;5043906;28;20048;-72
2023/04/11 01:04:20;;;;;;;8.43;1.80;;;;;;;;;;5043024;28;20045;-71
2023/04/11 01:06:57;;;;;;;9.18;2.00;;;;;;;;;;5041730;28;20515;-72
2023/04/11 01:09:24;;;;;;;9.13;2.55;;;;;;;;;;5044241;28;20443;-72
2023/04/11 01:11:50;;;;;;;9.07;2.42;;;;;;;;;;5042650;28;20048;-72
2023/04/11 01:14:18;;;;;;;8.77;2.65;;;;;;;;;;5042060;28;20048;-72
2023/04/11 01:16:49;;;;;;;7.55;1.83;;;;;;;;;;5043942;28;20665;-72
2023/04/11 01:19:17;;;;;;;7.63;1.80;;;;;;;;;;5040927;28;20049;-72
2023/04/11 01:21:44;;;;;;;9.18;1.83;;;;;;;;;;5044278;28;20052;-72
2023/04/11 01:24:11;;;;;;;6.72;1.88;;;;;;;;;;5043199;28;20041;-72
2023/04/11 01:26:37;;;;;;;4.93;1.20;;;;;;;;;;5042739;28;20562;-72
2023/04/11 01:29:03;;;;;;;5.57;1.33;;;;;;;;;;5043655;28;20502;-71
2023/04/11 01:31:31;;;;;;;9.70;1.75;;;;;;;;;;5042473;28;20099;-72
2023/04/11 01:33:57;;;;;;;5.90;1.10;;;;;;;;;;5041570;28;20072;-72
2023/04/11 01:36:23;;;;;;;3.28;0.85;;;;;;;;;;5043937;28;20040;-72
2023/04/11 01:38:49;;;;;;;6.60;1.92;;;;;;;;;;5041285;28;20080;-71
2023/04/11 01:41:16;;;;;;;12.40;3.08;;;;;;;;;;5042328;28;20051;-71
2023/04/11 01:43:42;;;;;;;7.82;1.90;;;;;;;;;;5044145;28;20052;-71
2023/04/11 01:46:10;;;;;;;3.80;1.30;;;;;;;;;;5043219;28;20107;-72
2023/04/11 01:48:36;;;;;;;7.00;2.22;;;;;;;;;;5042825;28;20527;-71
2023/04/11 01:51:02;;;;;;;7.53;1.50;;;;;;;;;;5043494;28;20044;-72
2023/04/11 01:53:28;;;;;;;3.70;1.23;;;;;;;;;;5044210;28;20049;-72
2023/04/11 01:55:54;;;;;;;6.05;1.50;;;;;;;;;;5040634;28;20053;-71
2023/04/11 01:58:20;;;;;;;3.53;1.20;;;;;;;;;;5042927;28;20033;-72
2023/04/11 02:00:46;;;;;;;4.63;1.30;;;;;;;;;;5040217;28;20495;-72
2023/04/11 02:03:12;;;;;;;3.38;1.15;;;;;;;;;;5043484;28;20045;-72
2023/04/11 02:05:38;;;;;;;5.68;1.10;;;;;;;;;;5041629;28;20061;-72
2023/04/11 02:08:04;;;;;;;4.10;1.10;;;;;;;;;;5043278;28;20516;-72
2023/04/11 02:10:31;;;;;;;4.97;0.75;;;;;;;;;;5037754;28;20563;-71
2023/04/11 02:12:57;;;;;;;2.78;0.60;;;;;;;;;;5043040;28;20052;-72
2023/04/11 02:15:23;;;;;;;10.63;1.52;;;;;;;;;;5041354;28;20544;-72
2023/04/11 02:17:52;;;;;;;1.90;1.13;;;;;;;;;;5040968;28;20063;-72
2023/04/11 02:20:22;;;;;;;2.08;1.08;;;;;;;;;;5041801;28;20056;-71
2023/04/11 02:22:48;;;;;;;0.73;0.40;;;;;;;;;;5038985;28;20053;-71
2023/04/11 02:25:14;;;;;;;3.05;0.80;;;;;;;;;;5043442;28;20041;-71
2023/04/11 02:27:40;;;;;;;3.72;0.90;;;;;;;;;;5042795;28;20056;-72
2023/04/11 02:30:06;;;;;;;2.30;0.57;;;;;;;;;;5040722;28;20049;-71
2023/04/11 02:32:39;;;;;;;3.75;0.80;;;;;;;;;;5039640;28;20209;-71
2023/04/11 02:35:08;;;;;;;2.20;0.88;;;;;;;;;;5043138;28;20056;-71
2023/04/11 02:37:34;;;;;;;1.20;0.52;;;;;;;;;;5042262;28;20037;-72
2023/04/11 02:40:02;;;;;;;4.80;0.70;;;;;;;;;;5042044;28;20150;-71
2023/04/11 02:42:28;;;;;;;2.97;1.08;;;;;;;;;;5041431;28;20068;-71
2023/04/11 02:44:54;;;;;;;3.08;0.82;;;;;;;;;;5042902;28;20372;-72
2023/04/11 02:47:21;;;;;;;1.33;0.80;;;;;;;;;;5043246;28;20255;-71
2023/04/11 02:49:47;;;;;;;4.78;1.30;;;;;;;;;;5043794;28;20055;-71
2023/04/11 02:52:13;;;;;;;1.65;0.68;;;;;;;;;;5045147;28;20040;-71
2023/04/11 02:54:39;;;;;;;1.85;0.85;;;;;;;;;;5046644;28;20056;-71
2023/04/11 02:57:05;;;;;;;5.95;1.00;;;;;;;;;;5046950;28;20048;-71
2023/04/11 02:59:31;;;;;;;7.82;1.48;;;;;;;;;;5046223;28;20391;-71
2023/04/11 03:01:58;;;;;;;4.10;0.90;;;;;;;;;;5044824;28;20130;-71
2023/04/11 03:04:24;;;;;;;4.15;1.20;;;;;;;;;;5044690;28;20055;-71
2023/04/11 03:06:50;;;;;;;3.22;0.90;;;;;;;;;;5043791;28;20064;-71
2023/04/11 03:09:16;;;;;;;3.17;1.08;;;;;;;;;;5046824;28;20068;-71
2023/04/11 03:11:42;;;;;;;2.90;0.95;;;;;;;;;;5046448;28;20456;-71
2023/04/11 03:14:08;;;;;;;2.17;0.63;;;;;;;;;;5046471;28;20037;-71
2023/04/11 03:16:34;;;;;;;2.05;0.73;;;;;;;;;;5045183;28;20064;-72
2023/04/11 03:19:00;;;;;;;3.75;1.48;;;;;;;;;;5045605;28;20041;-71
2023/04/11 03:21:26;;;;;;;2.83;0.60;;;;;;;;;;5046181;28;20051;-71
2023/04/11 03:23:53;;;;;;;2.55;0.80;;;;;;;;;;5043836;28;20057;-71
2023/04/11 03:26:19;;;;;;;4.72;1.63;;;;;;;;;;5044034;28;20091;-71
2023/04/11 03:28:45;;;;;;;2.55;1.02;;;;;;;;;;5045014;28;20064;-71
2023/04/11 03:31:12;;;;;;;3.58;1.15;;;;;;;;;;5046444;28;20056;-71
2023/04/11 03:33:38;;;;;;;3.15;1.02;;;;;;;;;;5045012;28;20588;-71
2023/04/11 03:36:04;;;;;;;4.22;0.85;;;;;;;;;;5045639;28;20090;-71
2023/04/11 03:38:31;;;;;;;3.13;1.55;;;;;;;;;;5044916;28;20719;-71
2023/04/11 03:40:57;;;;;;;6.53;1.63;;;;;;;;;;5044774;28;20580;-71
2023/04/11 03:43:23;;;;;;;4.18;1.13;;;;;;;;;;5044757;28;20103;-71
2023/04/11 03:45:50;;;;;;;4.60;1.52;;;;;;;;;;5044926;28;20045;-71
2023/04/11 03:48:16;;;;;;;4.07;1.10;;;;;;;;;;5041593;28;20057;-71
2023/04/11 03:50:42;;;;;;;12.57;2.53;;;;;;;;;;5045812;28;20059;-71
2023/04/11 03:53:08;;;;;;;7.22;1.67;;;;;;;;;;5044208;28;20040;-71
2023/04/11 03:55:34;;;;;;;5.25;1.20;;;;;;;;;;5044580;28;20403;-71
2023/04/11 03:58:00;;;;;;;10.07;2.58;;;;;;;;;;5045621;28;20124;-71
2023/04/11 04:00:27;;;;;;;5.35;1.70;;;;;;;;;;5043694;28;20059;-71
2023/04/11 04:02:53;;;;;;;4.80;1.55;;;;;;;;;;5043511;28;20060;-71
2023/04/11 04:05:19;;;;;;;2.67;0.90;;;;;;;;;;5045035;28;20044;-71
2023/04/11 04:07:45;;;;;;;5.97;1.83;;;;;;;;;;5046122;28;20610;-71
2023/04/11 04:10:11;;;;;;;4.35;1.13;;;;;;;;;;5045271;28;20056;-71
2023/04/11 04:12:37;;;;;;;3.42;1.33;;;;;;;;;;5044423;28;20045;-71
2023/04/11 04:15:03;;;;;;;3.35;1.30;;;;;;;;;;5045122;28;20041;-71
2023/04/11 04:17:29;;;;;;;7.82;1.40;;;;;;;;;;5045746;28;20407;-71
2023/04/11 04:19:55;;;;;;;2.45;1.15;;;;;;;;;;5043876;28;20052;-71
2023/04/11 04:22:22;;;;;;;3.42;1.38;;;;;;;;;;5045202;28;20047;-71
2023/04/11 04:24:48;;;;;;;4.40;1.65;;;;;;;;;;5045112;28;20514;-71
2023/04/11 04:27:17;;;;;;;6.97;1.70;;;;;;;;;;5046342;28;20045;-71
2023/04/11 04:29:46;;;;;;;3.50;1.20;;;;;;;;;;5045436;28;20040;-71
2023/04/11 04:32:13;;;;;;;5.75;1.83;;;;;;;;;;5044979;28;20052;-71
2023/04/11 04:34:53;;;;;;;6.25;1.90;;;;;;;;;;5045661;28;20090;-71
2023/04/11 04:37:23;;;;;;;6.35;2.08;;;;;;;;;;5044979;28;20391;-71
2023/04/11 04:39:55;;;;;;;4.10;1.17;;;;;;;;;;5041733;28;20049;-71
2023/04/11 04:42:21;;;;;;;3.95;1.75;;;;;;;;;;5044010;28;20135;-71
2023/04/11 04:44:47;;;;;;;3.40;1.45;;;;;;;;;;5042349;28;20128;-71
2023/04/11 04:47:14;;;;;;;9.60;2.38;;;;;;;;;;5043335;28;20491;-71
2023/04/11 04:49:40;;;;;;;5.10;2.00;;;;;;;;;;5045457;28;20119;-71
2023/04/11 04:52:06;;;;;;;5.72;2.28;;;;;;;;;;5044149;28;20491;-71
2023/04/11 04:54:32;;;;;;;7.95;2.08;;;;;;;;;;5045257;28;20056;-71
2023/04/11 04:56:58;;;;;;;3.80;1.50;;;;;;;;;;5044455;28;20041;-71
2023/04/11 04:59:24;;;;;;;5.13;1.70;;;;;;;;;;5042822;28;20412;-70
2023/04/11 05:01:50;;;;;;;6.25;1.90;;;;;;;;;;5043434;28;20088;-70
2023/04/11 05:04:17;;;;;;;4.88;0.98;;;;;;;;;;5043602;28;20041;-70
2023/04/11 05:06:43;;;;;;;1.20;0.68;;;;;;;;;;5045062;28;20051;-70
2023/04/11 05:09:09;;;;;;;1.90;0.70;;;;;;;;;;5044651;28;20045;-70
2023/04/11 05:11:35;;;;;;;1.80;0.88;;;;;;;;;;5043977;28;20072;-70
2023/04/11 05:14:01;;;;;;;0.77;0.45;;;;;;;;;;5042520;28;20523;-70
2023/04/11 05:16:27;;;;;;;1.15;0.52;;;;;;;;;;5045184;28;20056;-70
2023/04/11 05:18:53;;;;;;;2.20;0.68;;;;;;;;;;5043636;28;20123;-70
2023/04/11 05:21:19;;;;;;;2.65;0.95;;;;;;;;;;5044948;28;20130;-70
2023/04/11 05:23:45;;;;;;;3.63;0.70;;;;;;;;;;5042733;28;20150;-70
2023/04/11 05:26:11;;;;;;;2.22;0.98;;;;;;;;;;5044832;28;20044;-70
2023/04/11 05:28:37;;;;;;;4.35;1.10;;;;;;;;;;5044208;28;20051;-70
2023/04/11 05:31:03;;;;;;;3.03;1.10;;;;;;;;;;5044024;28;20063;-70
2023/04/11 05:33:29;;;;;;;3.53;1.20;;;;;;;;;;5042820;28;20057;-70
2023/04/11 05:35:55;;;;;;;5.72;1.58;;;;;;;;;;5042276;28;20060;-70
2023/04/11 05:38:21;;;;;;;2.67;1.15;;;;;;;;;;5041692;28;20162;-70
2023/04/11 05:40:47;;;;;;;7.18;1.75;;;;;;;;;;5041155;28;20223;-70
2023/04/11 05:43:14;;;;;;;4.93;1.50;;;;;;;;;;5044647;28;20596;-70
2023/04/11 05:45:40;;;;;;;4.15;1.98;;;;;;;;;;5044359;28;20055;-70
2023/04/11 05:48:06;;;;;;;4.68;1.38;;;;;;;;;;5042046;28;20048;-70
2023/04/11 05:50:33;;;;;;;3.17;1.38;;;;;;;;;;5043185;28;20049;-71
2023/04/11 05:52:59;;;;;;;7.03;1.92;;;;;;;;;;5043480;28;20048;-70
2023/04/11 05:55:25;;;;;;;8.38;2.97;;;;;;;;;;5042198;28;20052;-70
2023/04/11 05:57:51;;;;;;;5.82;2.05;;;;;;;;;;5042156;28;20049;-71
2023/04/11 06:00:17;;;;;;;7.22;2.58;;;;;;;;;;5042968;28;20047;-71
2023/04/11 06:02:43;;;;;;;8.57;2.15;;;;;;;;;;5043837;28;20044;-71
2023/04/11 06:05:10;;;;;;;8.77;2.47;;;;;;;;;;5042779;28;20812;-70
2023/04/11 06:07:40;;;;;;;8.90;2.25;;;;;;;;;;5043451;28;20048;-71
2023/04/11 06:10:07;;;;;;;7.30;2.35;;;;;;;;;;5043471;28;20127;-71
2023/04/11 06:12:33;;;;;;;2.83;1.92;;;;;;;;;;5041504;28;20083;-71
2023/04/11 06:14:59;;;;;;;6.70;1.83;;;;;;;;;;5041422;28;20073;-71
2023/04/11 06:17:25;;;;;;;7.55;2.53;;;;;;;;;;5044387;28;20044;-71
2023/04/11 06:19:51;;;;;;;7.60;2.90;;;;;;;;;;5041321;28;20061;-71
2023/04/11 06:22:17;;;;;;;12.13;2.88;;;;;;;;;;5043559;28;20049;-71
2023/04/11 06:24:46;;;;;;;6.93;2.20;;;;;;;;;;5045126;28;20049;-71
2023/04/11 06:27:13;;;;;;;9.95;2.50;;;;;;;;;;5046754;28;20445;-71
2023/04/11 06:29:39;;;;;;;5.90;1.88;;;;;;;;;;5047335;28;20056;-71
2023/04/11 06:32:06;;;;;;;9.85;2.65;;;;;;;;;;5045237;28;20079;-71
2023/04/11 06:34:32;;;;;;;6.32;2.08;;;;;;;;;;5043298;28;20049;-71
2023/04/11 06:36:58;;;;;;;9.55;2.40;;;;;;;;;;5044784;28;20437;-71
2023/04/11 06:39:24;;;;;;;9.13;2.58;;;;;;;;;;5046239;28;20129;-71
2023/04/11 06:41:50;;;;;;;10.00;2.85;;;;;;;;;;5046720;28;20483;-71
2023/04/11 06:44:17;;;;;;;5.90;2.70;;;;;;;;;;5046087;28;20362;-71
2023/04/11 06:46:43;;;;;;;5.10;2.17;;;;;;;;;;5044102;28;20084;-71
2023/04/11 06:49:10;;;;;;;5.78;1.85;;;;;;;;;;5046484;28;20510;-71
2023/04/11 06:51:36;;;;;;;4.78;1.48;;;;;;;;;;5045756;28;20060;-71
2023/04/11 06:54:03;;;;;;;5.07;1.67;;;;;;;;;;5047311;28;20551;-71
2023/04/11 06:56:29;;;;;;;10.52;2.53;;;;;;;;;;5046256;28;20636;-71
2023/04/11 06:58:55;;;;;;;11.05;2.55;;;;;;;;;;5044893;28;20037;-71
2023/04/11 07:01:24;;;;;;;6.95;2.28;;;;;;;;;;5043620;28;20136;-71
2023/04/11 07:03:53;;;;;;;6.43;2.17;;;;;;;;;;5046051;28;20076;-71
2023/04/11 07:06:20;;;;;;;8.35;2.00;;;;;;;;;;5044966;28;20074;-70
2023/04/11 07:08:46;;;;;;;8.95;2.75;;;;;;;;;;5045348;28;20045;-71
2023/04/11 07:11:12;;;;;;;4.40;1.88;;;;;;;;;;5045634;28;20049;-70
2023/04/11 07:13:38;;;;;;;7.00;1.98;;;;;;;;;;5045732;28;20407;-70
2023/04/11 07:16:04;;;;;;;5.50;2.10;;;;;;;;;;5045647;28;20052;-71
2023/04/11 07:18:30;;;;;;;7.28;2.80;;;;;;;;;;5045478;28;20094;-71
2023/04/11 07:20:56;;;;;;;11.77;2.20;;;;;;;;;;5046251;28;20056;-71
2023/04/11 07:23:22;;;;;;;8.25;1.80;;;;;;;;;;5046215;28;20045;-71
2023/04/11 07:25:48;;;;;;;6.32;1.70;;;;;;;;;;5044503;28;20045;-71
2023/04/11 07:28:15;;;;;;;9.48;2.38;;;;;;;;;;5045172;28;20037;-71
2023/04/11 07:30:41;;;;;;;14.52;2.38;;;;;;;;;;5043534;28;20713;-71
2023/04/11 07:33:07;;;;;;;7.22;2.20;;;;;;;;;;5044968;28;20142;-70
2023/04/11 07:35:34;;;;;;;6.03;1.67;;;;;;;;;;5044318;28;20127;-71
2023/04/11 07:38:00;;;;;;;8.55;2.05;;;;;;;;;;5040726;28;20131;-71
2023/04/11 07:40:27;;;;;;;6.18;1.90;;;;;;;;;;5043470;28;20076;-64
2023/04/11 07:42:54;;;;;;;7.38;2.13;;;;;;;;;;5045857;28;20056;-65
2023/04/11 07:45:20;;;;;;;8.18;1.95;;;;;;;;;;5043392;28;20088;-64
2023/04/11 07:47:46;;;;;;;4.30;1.80;;;;;;;;;;5042380;28;20045;-64
2023/04/11 07:50:12;;;;;;;6.43;2.08;;;;;;;;;;5045224;28;20477;-68
2023/04/11 07:52:38;;;;;;;6.57;1.77;;;;;;;;;;5044737;28;20391;-75
2023/04/11 07:55:04;;;;;;;8.15;1.90;;;;;;;;;;5045203;28;20072;-75
2023/04/11 07:57:30;;;;;;;4.80;1.50;;;;;;;;;;5046043;28;20132;-79
2023/04/11 08:00:00;;;;;;;9.75;2.22;;;;;;;;;;5046620;28;20099;-81
2023/04/11 08:02:26;;;;;;;8.82;1.80;;;;;;;;;;5052757;28;20045;-82
2023/04/11 08:04:52;;;;;;;3.90;1.73;;;;;;;;;;5047424;28;20048;-77
2023/04/11 08:07:18;;;;;;;5.68;1.70;;;;;;;;;;5046733;28;20052;-76
2023/04/11 08:09:44;;;;;;;7.50;1.80;;;;;;;;;;5048096;28;20537;-75
2023/04/11 08:12:10;;;;;;;7.45;2.28;;;;;;;;;;5047845;28;20479;-81
2023/04/11 08:14:36;;;;;;;8.73;2.45;;;;;;;;;;5046421;28;20511;-84
2023/04/11 08:17:02;;;;;;;4.95;1.90;;;;;;;;;;5045843;28;20048;-79
2023/04/11 08:19:30;;;;;;;7.25;1.85;;;;;;;;;;5045756;28;20045;-80
2023/04/11 08:21:56;;;;;;;10.52;2.38;;;;;;;;;;5043791;28;20044;-80
2023/04/11 08:24:22;;;;;;;10.27;2.25;;;;;;;;;;5045312;28;20048;-80
2023/04/11 08:26:47;;;;;;;8.40;2.60;;;;;;;;;;5040735;28;20129;-79
2023/04/11 08:29:14;;;;;;;6.13;1.77;;;;;;;;;;5045410;28;20033;-80
2023/04/11 08:31:43;;;;;;;3.72;1.70;;;;;;;;;;5045928;28;20061;-82
2023/04/11 08:34:09;;;;;;;9.65;2.95;;;;;;;;;;5045929;28;20132;-84
2023/04/11 08:36:35;;;;;;;4.35;1.55;;;;;;;;;;5047342;28;20045;-83
2023/04/11 08:39:01;;;;;;;10.30;2.30;;;;;;;;;;5046214;28;20049;-83
2023/04/11 08:41:29;;;;;;;5.93;2.00;;;;;;;;;;5048209;28;20055;-83
2023/04/11 08:43:56;;;;;;;11.32;2.13;;;;;;;;;;5045636;28;20446;-84
2023/04/11 08:46:22;;;;;;;5.68;1.73;;;;;;;;;;5046724;28;20534;-85
2023/04/11 08:48:48;;;;;;;9.23;1.83;;;;;;;;;;5047137;28;20075;-84
2023/04/11 08:51:20;;;;;;;3.97;1.85;;;;;;;;;;5048447;28;20416;-86
2023/04/11 08:53:46;;;;;;;9.15;1.77;;;;;;;;;;5045439;28;20499;-84
2023/04/11 08:56:18;;;;;;;8.02;2.33;;;;;;;;;;5044855;28;20114;-84
2023/04/11 08:58:45;;;;;;;;;;;;;;;;;;5044742;28;20491;-74
2023/04/11 09:01:27;;;;;;;4.10;1.58;;;;;;;;;;5042744;28;20303;-81
2023/04/11 09:03:53;;;;;;;4.13;1.52;;;;;;;;;;5037515;28;20068;-80
2023/04/11 09:06:20;;;;;;;6.75;2.15;;;;;;;;;;5041479;28;20489;-83
2023/04/11 09:08:46;;;;;;;6.43;1.90;;;;;;;;;;5039535;28;20037;-84
2023/04/11 09:11:12;;;;;;;1.85;0.88;;;;;;;;;;5041520;28;20053;-83
2023/04/11 09:13:38;;;;;;;1.75;0.90;;;;;;;;;;5044856;28;20172;-83
2023/04/11 09:16:04;;;;;;;2.95;1.08;;;;;;;;;;5037739;28;20037;-74
2023/04/11 09:18:34;;;;;;;0.80;0.65;;;;;;;;;;5044692;28;20128;-87
2023/04/11 09:21:05;;;;;;;2.17;1.27;;;;;;;;;;5043714;28;20131;-86
2023/04/11 09:23:31;;;;;;;7.53;1.75;;;;;;;;;;5044103;28;20052;-83
2023/04/11 09:25:57;;;;;;;6.10;1.40;;;;;;;;;;5043175;28;20159;-84
2023/04/11 09:28:24;;;;;;;5.43;2.08;;;;;;;;;;5044024;28;20076;-84
2023/04/11 09:30:54;;;;;;;3.42;1.08;;;;;;;;;;5044862;28;20474;-84
2023/04/11 09:33:27;;;;;;;3.67;1.88;;;;;;;;;;5043393;28;20048;-81
2023/04/11 09:35:54;;;;;;;6.95;2.25;;;;;;;;;;5043608;28;20084;-83
2023/04/11 09:38:32;;;;;;;9.43;2.10;;;;;;;;;;5045198;28;20048;-82
2023/04/11 09:41:02;;;;;;;8.45;2.03;;;;;;;;;;5042841;28;20087;-81
2023/04/11 09:43:48;;;;;;;4.82;1.90;;;;;;;;;;5043350;28;20060;-81
2023/04/11 09:46:17;;;;;;;11.65;2.30;;;;;;;;;;5044049;28;20037;-82
2023/04/11 09:48:43;;;;;;;9.70;2.47;;;;;;;;;;5043256;28;20063;-82
2023/04/11 09:51:10;;;;;;;9.23;2.22;;;;;;;;;;5039473;28;20506;-83
2023/04/11 09:53:36;;;;;;;3.58;1.10;;;;;;;;;;5042475;28;20641;-81
2023/04/11 09:56:02;;;;;;;4.85;1.30;;;;;;;;;;5041112;28;20041;-81
2023/04/11 09:58:33;;;;;;;2.83;1.00;;;;;;;;;;5044307;28;20163;-80
2023/04/11 10:01:03;;;;;;;2.35;0.80;;;;;;;;;;5042746;28;20057;-82
2023/04/11 10:03:35;;;;;;;2.17;0.50;;;;;;;;;;5039943;28;20087;-78
2023/04/11 10:06:25;;;;;;;2.40;0.90;;;;;;;;;;5025418;28;20063;-80
2023/04/11 10:08:51;;;;;;;5.07;1.10;;;;;;;;;;5018251;28;20518;-83
2023/04/11 10:11:19;;;;;;;2.55;0.77;;;;;;;;;;5025765;28;20510;-84
2023/04/11 10:13:46;;;;;;;6.63;1.33;;;;;;;;;;5025585;28;20095;-85
2023/04/11 10:16:13;;;;;;;9.10;2.20;;;;;;;;;;5025876;28;20057;-82
2023/04/11 10:18:51;;;;;;;6.22;2.30;;;;;;;;;;5026794;28;20072;-84
2023/04/11 10:21:29;;;;;;;7.03;1.85;;;;;;;;;;5025526;28;20053;-89
2023/04/11 10:24:09;;;;;;;6.78;1.95;;;;;;;;;;5023621;28;20056;-85
2023/04/11 10:27:06;;;;;;;7.28;1.70;;;;;;;;;;5027271;28;20048;-84
2023/04/11 10:29:32;;;;;;;5.47;1.20;;;;;;;;;;5011335;28;20065;-84
2023/04/11 10:32:18;;;;;;;8.73;1.75;;;;;;;;;;5025354;28;20057;-86
2023/04/11 10:34:50;;;;;;;8.13;1.75;;;;;;;;;;5025611;28;20087;-86
2023/04/11 10:37:31;;;;;;;9.05;2.33;;;;;;;;;;5033506;28;20049;-86
2023/04/11 10:39:59;;;;;;;5.63;1.55;;;;;;;;;;5040134;28;20111;-84
2023/04/11 10:42:41;;;;;;;4.65;1.08;;;;;;;;;;5032395;28;20095;-85
2023/04/11 10:45:17;;;;;;;2.60;0.85;;;;;;;;;;5045413;28;20048;-86
2023/04/11 10:47:58;;;;;;;4.65;1.23;;;;;;;;;;5042800;28;20041;-85
2023/04/11 10:50:30;;;;;;;4.35;1.20;;;;;;;;;;5026935;28;20531;-85
2023/04/11 10:53:03;;;;;;;6.20;1.90;;;;;;;;;;5025108;28;20093;-86
2023/04/11 10:55:31;;;;;;;8.23;2.00;;;;;;;;;;5042758;28;20037;-85
2023/04/11 10:58:14;;;;;;;5.15;1.30;;;;;;;;;;5041671;28;20053;-84
2023/04/11 11:00:40;;;;;;;;;;;;;;;;;;5037871;28;20053;-82
2023/04/11 11:03:13;;;;;;;4.85;1.00;;;;;;;;;;5024915;28;19928;-74
2023/04/11 11:05:39;;;;;;;3.75;1.10;;;;;;;;;;5025860;28;20385;-73
2023/04/11 11:08:05;;;;;;;8.13;1.67;;;;;;;;;;5024664;28;20076;-74
2023/04/11 11:10:38;;;;;;;12.38;2.28;;;;;;;;;;5023944;28;20503;-78
2023/04/11 11:13:04;;;;;;;7.10;1.98;;;;;;;;;;5027164;28;20384;-78
2023/04/11 11:15:36;;;;;;;4.43;1.73;;;;;;;;;;5028733;28;20045;-80
2023/04/11 11:18:02;;;;;;;9.00;2.53;;;;;;;;;;5027313;28;20528;-78
2023/04/11 11:20:28;;;;;;;8.88;2.03;;;;;;;;;;5038267;28;20539;-79
2023/04/11 11:23:01;;;;;;;8.02;2.28;;;;;;;;;;5047746;28;20045;-79
2023/04/11 11:25:27;;;;;;;7.15;1.77;;;;;;;;;;5046982;28;20049;-79
2023/04/11 11:27:59;;;;;;;4.22;1.90;;;;;;;;;;5046809;28;20060;-79
2023/04/11 11:30:26;;;;;;;5.88;2.45;;;;;;;;;;5046551;28;20048;-81
2023/04/11 11:32:52;;;;;;;6.50;1.83;;;;;;;;;;5047127;28;20115;-82
2023/04/11 11:35:18;;;;;;;8.02;1.80;;;;;;;;;;5047148;28;20053;-83
2023/04/11 11:37:44;;;;;;;11.82;1.73;;;;;;;;;;5045963;28;20060;-81
2023/04/11 11:40:13;;;;;;;4.57;1.42;;;;;;;;;;5045594;28;20037;-83
2023/04/11 11:42:40;;;;;;;7.80;1.65;;;;;;;;;;5045739;28;20492;-80
2023/04/11 11:45:19;;;;;;;6.25;1.20;;;;;;;;;;5047225;28;20364;-81
2023/04/11 11:47:46;;;;;;;4.07;1.10;;;;;;;;;;5046940;28;20044;-81
2023/04/11 11:50:23;;;;;;;5.60;1.27;;;;;;;;;;5047787;28;20048;-82
2023/04/11 11:52:49;;;;;;;6.72;1.55;;;;;;;;;;5025802;28;20128;-79
2023/04/11 11:55:18;;;;;;;12.18;2.20;;;;;;;;;;5033209;28;20049;-80
2023/04/11 11:57:45;;;;;;;8.02;1.98;;;;;;;;;;5042299;28;20098;-83
2023/04/11 12:00:11;;;;;;;4.50;1.30;;;;;;;;;;5031403;28;20073;-85
2023/04/11 12:02:38;;;;;;;5.10;1.30;;;;;;;;;;5041259;28;20092;-86
2023/04/11 12:05:05;;;;;;;4.75;1.48;;;;;;;;;;5031251;28;20080;-86
2023/04/11 12:07:32;;;;;;;5.45;1.00;;;;;;;;;;5028480;28;20045;-90
2023/04/11 12:10:02;;;;;;;3.72;1.13;;;;;;;;;;5027405;28;20081;-86
2023/04/11 12:12:37;;;;;;;3.15;1.35;;;;;;;;;;5030311;28;20164;-88
2023/04/11 12:15:20;;;;;;;7.90;2.00;;;;;;;;;;5029610;28;20431;-86
2023/04/11 12:17:46;;;;;;;;;;;;;;;;;;5029102;28;20049;-86
2023/04/11 12:20:14;;;;;;;4.72;1.90;;;;;;;;;;5028335;28;19925;-86
2023/04/11 12:22:40;;;;;;;7.70;2.20;;;;;;;;;;5024567;28;20050;-88
2023/04/11 12:25:09;;;;;;;15.05;2.45;;;;;;;;;;5027345;28;20060;-86
2023/04/11 12:27:36;;;;;;;3.33;1.50;;;;;;;;;;5027281;28;20139;-88
2023/04/11 12:30:03;;;;;;;6.65;1.58;;;;;;;;;;5033429;28;20044;-84
2023/04/11 12:32:29;;;;;;;3.22;1.20;;;;;;;;;;5041402;28;20057;-80
2023/04/11 12:34:55;;;;;;;5.53;1.13;;;;;;;;;;5040547;28;20081;-80
2023/04/11 12:37:21;;;;;;;4.60;1.55;;;;;;;;;;5039337;28;20127;-83
2023/04/11 12:39:47;;;;;;;4.57;1.52;;;;;;;;;;5036876;28;20041;-81
2023/04/11 12:42:14;;;;;;;9.40;1.85;;;;;;;;;;5041065;28;20048;-81
2023/04/11 12:44:40;;;;;;;9.30;2.72;;;;;;;;;;5038922;28;20480;-81
2023/04/11 12:47:06;;;;;;;5.15;1.70;;;;;;;;;;5037901;28;20060;-79
2023/04/11 12:49:32;;;;;;;3.22;1.20;;;;;;;;;;5033433;28;20049;-79
2023/04/11 12:51:58;;;;;;;5.95;1.65;;;;;;;;;;5037390;28;20080;-80
2023/04/11 12:54:25;;;;;;;4.28;1.15;;;;;;;;;;5032877;28;20045;-80
2023/04/11 12:56:51;;;;;;;4.32;1.45;;;;;;;;;;5037652;28;20049;-79
2023/04/11 12:59:16;;;;;;;2.08;0.90;;;;;;;;;;5045736;28;20132;-80
2023/04/11 13:01:43;;;;;;;2.92;0.75;;;;;;;;;;5040140;28;20128;-80
2023/04/11 13:04:09;;;;;;;4.22;0.90;;;;;;;;;;5043175;28;20041;-80
2023/04/11 13:06:36;;;;;;;3.80;1.27;;;;;;;;;;5043632;28;20112;-79
2023/04/11 13:09:04;;;;;;;13.18;3.55;;;;;;;;;;5042064;28;20053;-82
2023/04/11 13:11:30;;;;;;;9.18;2.45;;;;;;;;;;5040606;28;20049;-79
2023/04/11 13:13:56;;;;;;;9.10;2.38;;;;;;;;;;5033489;28;20049;-80
2023/04/11 13:16:22;;;;;;;8.93;1.70;;;;;;;;;;5041667;28;20134;-79
2023/04/11 13:18:49;;;;;;;8.48;1.25;;;;;;;;;;5030995;28;20045;-77
2023/04/11 13:21:15;;;;;;;3.97;1.30;;;;;;;;;;5041708;28;20049;-78
2023/04/11 13:23:41;;;;;;;7.38;1.98;;;;;;;;;;5034096;28;20056;-76
2023/04/11 13:26:07;;;;;;;6.13;1.70;;;;;;;;;;5037027;28;20053;-77
2023/04/11 13:28:33;;;;;;;4.22;1.58;;;;;;;;;;5039665;28;20055;-79
2023/04/11 13:31:00;;;;;;;7.32;1.80;;;;;;;;;;5036758;28;20045;-79
2023/04/11 13:33:26;;;;;;;6.22;1.60;;;;;;;;;;5039864;28;20052;-77
2023/04/11 13:35:52;;;;;;;7.38;2.22;;;;;;;;;;5031689;28;20049;-76
2023/04/11 13:38:18;;;;;;;7.07;1.77;;;;;;;;;;5035156;28;20045;-78
2023/04/11 13:40:44;;;;;;;5.13;1.48;;;;;;;;;;5044254;28;20110;-78
2023/04/11 13:43:10;;;;;;;6.18;1.98;;;;;;;;;;5036212;28;20467;-77
2023/04/11 13:45:36;;;;;;;3.70;1.35;;;;;;;;;;5043768;28;20057;-78
2023/04/11 13:48:02;;;;;;;7.15;1.73;;;;;;;;;;5037074;28;20068;-75
2023/04/11 13:50:28;;;;;;;6.63;1.67;;;;;;;;;;5039116;28;20041;-78
2023/04/11 13:52:55;;;;;;;4.65;1.52;;;;;;;;;;5029133;28;20499;-77
2023/04/11 13:55:22;;;;;;;9.32;2.70;;;;;;;;;;5044563;28;20586;-80
2023/04/11 13:57:48;;;;;;;3.58;1.30;;;;;;;;;;5037673;28;20056;-79
2023/04/11 14:00:14;;;;;;;6.57;2.28;;;;;;;;;;5029467;28;20041;-79
2023/04/11 14:02:40;;;;;;;10.55;2.33;;;;;;;;;;5033494;28;20057;-80
2023/04/11 14:05:08;;;;;;;10.48;2.35;;;;;;;;;;5042202;28;20072;-80
2023/04/11 14:07:34;;;;;;;6.40;1.67;;;;;;;;;;5041005;28;20491;-80
2023/04/11 14:10:00;;;;;;;4.55;1.27;;;;;;;;;;5043886;28;20479;-78
2023/04/11 14:12:26;;;;;;;7.43;2.17;;;;;;;;;;5043858;28;20048;-78
2023/04/11 14:14:52;;;;;;;7.35;2.47;;;;;;;;;;5043585;28;20144;-75
2023/04/11 14:17:18;;;;;;;8.00;1.67;;;;;;;;;;5037954;28;20048;-71
2023/04/11 14:19:44;;;;;;;6.20;1.65;;;;;;;;;;5040783;28;20045;-72
2023/04/11 14:22:11;;;;;;;9.90;2.10;;;;;;;;;;5041101;28;20075;-71
2023/04/11 14:24:36;;;;;;;8.85;2.03;;;;;;;;;;5028887;28;20128;-71
2023/04/11 14:27:03;;;;;;;5.65;1.48;;;;;;;;;;5035840;28;20163;-72
2023/04/11 14:29:29;;;;;;;10.77;2.85;;;;;;;;;;5039292;28;20369;-72
2023/04/11 14:31:56;;;;;;;7.78;2.25;;;;;;;;;;5032319;28;20411;-71
2023/04/11 14:34:22;;;;;;;6.07;1.48;;;;;;;;;;5042878;28;20450;-71
2023/04/11 14:36:49;;;;;;;5.15;1.63;;;;;;;;;;5038711;28;20494;-69
2023/04/11 14:39:15;;;;;;;5.05;1.75;;;;;;;;;;5037953;28;20479;-71
2023/04/11 14:41:41;;;;;;;13.43;2.42;;;;;;;;;;5044228;28;20045;-71
2023/04/11 14:44:07;;;;;;;7.25;2.83;;;;;;;;;;5040846;28;20052;-68